Southwest Washington Regional Airport Kelso US
ICAO: KKLS
IATA: KLS
Category: Medium
Scheduled Services: No

Elevation: 20 ft
TransAlt. 18000 ft.

Airport Communications:
AWOS 3:135.075
SEATTLE CNTR:124.2
SEATTLE RDO:122.25
CTAF/UNICOM:122.8

KKLS Zoom In..

Runways:

(A) RW 12 length 4391 ft width 100 ft
---- / hdg 123

(B) RW 30 length 4391 ft width 100 ft
---- / hdg 303

Location; KKLS
Day. 25 / Time. 12.56 Zulu
* Altimeter: 30.06
* Temperature: 06° c. 42.8°f.
* Wind from: 150° Speed 03 kn.
Dewpoint: 05° c.
Visibility: 4 Statute Miles.
Clouds: Broken 700 ft.
Clouds: Broken 2900 ft.
Clouds: Overcast 3500 ft.
Conditions: Rain.Conditions: Mist.

KKLS 251256Z AUTO 15003KT 4SM RA BR BKN007 BKN029 OVC035 06/05 A3006 RMK AO2 RAB27 SLP183 P0004 T00560050

Going to: --> -->


Wind From 150°
Speed 03 kn.

 
 
jpsmedia worldairports.se 2020   terms of use